sensor_id;sensor_type;location;lat;lon;timestamp;temperature;humidity
4596;DHT22;2310;49.978;8.742;2022-07-26T00:03:46;25.20;98.40
4596;DHT22;2310;49.978;8.742;2022-07-26T00:07:48;25.30;97.70
4596;DHT22;2310;49.978;8.742;2022-07-26T00:11:50;25.40;97.90
4596;DHT22;2310;49.978;8.742;2022-07-26T00:15:51;25.50;97.30
4596;DHT22;2310;49.978;8.742;2022-07-26T00:19:52;25.50;97.90
4596;DHT22;2310;49.978;8.742;2022-07-26T00:23:54;25.50;96.50
4596;DHT22;2310;49.978;8.742;2022-07-26T00:27:55;25.60;96.30
4596;DHT22;2310;49.978;8.742;2022-07-26T00:31:56;25.70;95.40
4596;DHT22;2310;49.978;8.742;2022-07-26T00:35:58;25.40;97.10
4596;DHT22;2310;49.978;8.742;2022-07-26T00:39:59;25.20;97.60
4596;DHT22;2310;49.978;8.742;2022-07-26T00:44:00;25.00;99.20
4596;DHT22;2310;49.978;8.742;2022-07-26T00:48:01;24.70;99.60
4596;DHT22;2310;49.978;8.742;2022-07-26T00:52:07;24.60;99.90
4596;DHT22;2310;49.978;8.742;2022-07-26T00:56:08;24.40;99.90
4596;DHT22;2310;49.978;8.742;2022-07-26T01:00:13;24.40;99.90
4596;DHT22;2310;49.978;8.742;2022-07-26T01:04:15;24.20;99.90
4596;DHT22;2310;49.978;8.742;2022-07-26T01:08:16;24.10;99.90
4596;DHT22;2310;49.978;8.742;2022-07-26T01:12:18;24.10;99.90
4596;DHT22;2310;49.978;8.742;2022-07-26T01:16:19;23.70;99.90
4596;DHT22;2310;49.978;8.742;2022-07-26T01:20:20;23.50;99.90
4596;DHT22;2310;49.978;8.742;2022-07-26T01:24:22;23.30;99.90
4596;DHT22;2310;49.978;8.742;2022-07-26T01:28:23;23.30;99.90
4596;DHT22;2310;49.978;8.742;2022-07-26T01:32:24;23.10;99.90
4596;DHT22;2310;49.978;8.742;2022-07-26T01:36:25;23.10;99.90
4596;DHT22;2310;49.978;8.742;2022-07-26T01:40:26;23.00;99.90
4596;DHT22;2310;49.978;8.742;2022-07-26T01:44:27;22.90;99.90
4596;DHT22;2310;49.978;8.742;2022-07-26T01:48:29;22.80;99.90
4596;DHT22;2310;49.978;8.742;2022-07-26T01:52:31;22.60;99.90
4596;DHT22;2310;49.978;8.742;2022-07-26T01:56:33;22.60;99.90
4596;DHT22;2310;49.978;8.742;2022-07-26T02:00:34;22.50;99.90
4596;DHT22;2310;49.978;8.742;2022-07-26T02:04:36;22.50;99.90
4596;DHT22;2310;49.978;8.742;2022-07-26T02:08:55;22.30;99.90
4596;DHT22;2310;49.978;8.742;2022-07-26T02:12:58;22.20;99.90
4596;DHT22;2310;49.978;8.742;2022-07-26T02:16:59;22.20;99.90
4596;DHT22;2310;49.978;8.742;2022-07-26T02:21:03;22.20;99.90
4596;DHT22;2310;49.978;8.742;2022-07-26T02:25:04;22.20;99.90
4596;DHT22;2310;49.978;8.742;2022-07-26T02:29:06;22.20;99.90
4596;DHT22;2310;49.978;8.742;2022-07-26T02:33:08;22.20;99.90
4596;DHT22;2310;49.978;8.742;2022-07-26T02:37:09;22.20;99.90
4596;DHT22;2310;49.978;8.742;2022-07-26T02:41:10;22.20;99.90
4596;DHT22;2310;49.978;8.742;2022-07-26T02:45:11;22.30;99.90
4596;DHT22;2310;49.978;8.742;2022-07-26T02:49:13;22.20;99.90
4596;DHT22;2310;49.978;8.742;2022-07-26T02:53:14;22.20;99.90
4596;DHT22;2310;49.978;8.742;2022-07-26T02:57:15;22.20;99.90
4596;DHT22;2310;49.978;8.742;2022-07-26T03:01:16;22.00;99.90
4596;DHT22;2310;49.978;8.742;2022-07-26T03:05:19;21.80;99.90
4596;DHT22;2310;49.978;8.742;2022-07-26T03:09:21;22.00;99.90
4596;DHT22;2310;49.978;8.742;2022-07-26T03:13:22;22.00;99.90
4596;DHT22;2310;49.978;8.742;2022-07-26T03:17:24;22.00;99.90
4596;DHT22;2310;49.978;8.742;2022-07-26T03:21:25;22.00;99.90
4596;DHT22;2310;49.978;8.742;2022-07-26T03:25:26;22.00;99.90
4596;DHT22;2310;49.978;8.742;2022-07-26T03:29:27;21.90;99.90
4596;DHT22;2310;49.978;8.742;2022-07-26T03:33:29;22.00;99.90
4596;DHT22;2310;49.978;8.742;2022-07-26T03:37:30;21.90;99.90
4596;DHT22;2310;49.978;8.742;2022-07-26T03:41:33;21.90;99.90
4596;DHT22;2310;49.978;8.742;2022-07-26T03:45:35;22.00;99.90
4596;DHT22;2310;49.978;8.742;2022-07-26T03:49:36;21.90;99.90
4596;DHT22;2310;49.978;8.742;2022-07-26T03:53:37;21.90;99.90
4596;DHT22;2310;49.978;8.742;2022-07-26T03:57:39;21.90;99.90
4596;DHT22;2310;49.978;8.742;2022-07-26T04:01:41;21.90;99.90
4596;DHT22;2310;49.978;8.742;2022-07-26T04:05:42;22.00;99.90
4596;DHT22;2310;49.978;8.742;2022-07-26T04:09:45;22.10;99.90
4596;DHT22;2310;49.978;8.742;2022-07-26T04:13:46;22.10;99.90
4596;DHT22;2310;49.978;8.742;2022-07-26T04:17:48;22.20;99.90
4596;DHT22;2310;49.978;8.742;2022-07-26T04:21:49;22.30;99.90
4596;DHT22;2310;49.978;8.742;2022-07-26T04:25:51;22.30;99.90
4596;DHT22;2310;49.978;8.742;2022-07-26T04:29:52;22.30;99.90
4596;DHT22;2310;49.978;8.742;2022-07-26T04:33:53;22.20;99.90
4596;DHT22;2310;49.978;8.742;2022-07-26T04:37:54;22.30;99.90
4596;DHT22;2310;49.978;8.742;2022-07-26T04:41:56;22.40;99.90
4596;DHT22;2310;49.978;8.742;2022-07-26T04:45:57;22.50;99.90
4596;DHT22;2310;49.978;8.742;2022-07-26T04:49:58;22.60;99.90
4596;DHT22;2310;49.978;8.742;2022-07-26T04:54:00;22.60;99.90
4596;DHT22;2310;49.978;8.742;2022-07-26T04:58:01;23.10;99.90
4596;DHT22;2310;49.978;8.742;2022-07-26T05:02:02;23.30;99.90
4596;DHT22;2310;49.978;8.742;2022-07-26T05:06:04;23.70;99.90
4596;DHT22;2310;49.978;8.742;2022-07-26T05:10:06;24.00;99.90
4596;DHT22;2310;49.978;8.742;2022-07-26T05:14:07;23.90;99.90
4596;DHT22;2310;49.978;8.742;2022-07-26T05:18:09;23.90;99.90
4596;DHT22;2310;49.978;8.742;2022-07-26T05:22:12;24.20;99.90
4596;DHT22;2310;49.978;8.742;2022-07-26T05:26:13;24.60;99.90
4596;DHT22;2310;49.978;8.742;2022-07-26T05:30:15;24.80;99.90
4596;DHT22;2310;49.978;8.742;2022-07-26T05:34:16;24.90;99.90
4596;DHT22;2310;49.978;8.742;2022-07-26T05:38:17;25.00;99.90
4596;DHT22;2310;49.978;8.742;2022-07-26T05:42:18;24.90;99.90
4596;DHT22;2310;49.978;8.742;2022-07-26T05:46:20;24.90;99.90
4596;DHT22;2310;49.978;8.742;2022-07-26T05:50:21;25.10;99.90
4596;DHT22;2310;49.978;8.742;2022-07-26T05:54:22;24.90;99.90
4596;DHT22;2310;49.978;8.742;2022-07-26T05:58:23;25.00;99.90
4596;DHT22;2310;49.978;8.742;2022-07-26T06:02:25;25.20;99.90
4596;DHT22;2310;49.978;8.742;2022-07-26T06:06:26;25.20;99.90
4596;DHT22;2310;49.978;8.742;2022-07-26T06:10:27;25.40;99.90
4596;DHT22;2310;49.978;8.742;2022-07-26T06:14:29;25.20;99.60
4596;DHT22;2310;49.978;8.742;2022-07-26T06:18:30;24.70;98.50
4596;DHT22;2310;49.978;8.742;2022-07-26T06:22:31;24.80;99.20
4596;DHT22;2310;49.978;8.742;2022-07-26T06:26:33;25.00;98.80
4596;DHT22;2310;49.978;8.742;2022-07-26T06:30:35;24.80;99.90
4596;DHT22;2310;49.978;8.742;2022-07-26T06:34:37;25.00;99.90
4596;DHT22;2310;49.978;8.742;2022-07-26T06:38:38;25.20;99.00
4596;DHT22;2310;49.978;8.742;2022-07-26T06:42:40;24.40;99.90
4596;DHT22;2310;49.978;8.742;2022-07-26T06:46:41;24.50;99.90
4596;DHT22;2310;49.978;8.742;2022-07-26T06:50:42;24.50;99.90
4596;DHT22;2310;49.978;8.742;2022-07-26T06:54:43;24.40;99.90
4596;DHT22;2310;49.978;8.742;2022-07-26T06:58:45;24.40;99.90
4596;DHT22;2310;49.978;8.742;2022-07-26T07:02:47;24.30;99.90
4596;DHT22;2310;49.978;8.742;2022-07-26T07:06:48;24.10;99.90
4596;DHT22;2310;49.978;8.742;2022-07-26T07:10:51;23.80;99.90
4596;DHT22;2310;49.978;8.742;2022-07-26T07:14:54;24.20;99.90
4596;DHT22;2310;49.978;8.742;2022-07-26T07:18:56;24.20;99.90
4596;DHT22;2310;49.978;8.742;2022-07-26T07:22:57;24.40;99.90
4596;DHT22;2310;49.978;8.742;2022-07-26T07:26:58;24.20;99.90
4596;DHT22;2310;49.978;8.742;2022-07-26T07:31:01;23.80;99.90
4596;DHT22;2310;49.978;8.742;2022-07-26T07:35:05;24.10;99.90
4596;DHT22;2310;49.978;8.742;2022-07-26T07:39:08;24.30;99.90
4596;DHT22;2310;49.978;8.742;2022-07-26T07:43:11;24.70;99.90
4596;DHT22;2310;49.978;8.742;2022-07-26T07:47:13;24.60;98.40
4596;DHT22;2310;49.978;8.742;2022-07-26T07:51:14;24.90;97.60
4596;DHT22;2310;49.978;8.742;2022-07-26T07:55:16;25.20;96.60
4596;DHT22;2310;49.978;8.742;2022-07-26T07:59:20;25.10;95.10
4596;DHT22;2310;49.978;8.742;2022-07-26T08:03:23;24.90;96.60
4596;DHT22;2310;49.978;8.742;2022-07-26T08:07:26;24.90;97.20
4596;DHT22;2310;49.978;8.742;2022-07-26T08:11:30;25.00;94.80
4596;DHT22;2310;49.978;8.742;2022-07-26T08:15:33;24.70;96.90
4596;DHT22;2310;49.978;8.742;2022-07-26T08:19:36;25.00;97.00
4596;DHT22;2310;49.978;8.742;2022-07-26T08:23:39;25.00;95.30
4596;DHT22;2310;49.978;8.742;2022-07-26T08:27:40;24.80;95.30
4596;DHT22;2310;49.978;8.742;2022-07-26T08:31:42;24.90;95.30
4596;DHT22;2310;49.978;8.742;2022-07-26T08:35:43;25.50;94.20
4596;DHT22;2310;49.978;8.742;2022-07-26T08:39:46;25.60;92.30
4596;DHT22;2310;49.978;8.742;2022-07-26T08:43:47;25.70;92.10
4596;DHT22;2310;49.978;8.742;2022-07-26T08:47:50;26.30;91.60
4596;DHT22;2310;49.978;8.742;2022-07-26T08:51:54;26.70;87.60
4596;DHT22;2310;49.978;8.742;2022-07-26T08:55:56;26.50;86.70
4596;DHT22;2310;49.978;8.742;2022-07-26T09:00:23;26.40;85.30
4596;DHT22;2310;49.978;8.742;2022-07-26T09:04:30;25.90;87.50
4596;DHT22;2310;49.978;8.742;2022-07-26T09:08:33;26.40;87.00
4596;DHT22;2310;49.978;8.742;2022-07-26T09:12:36;26.80;83.60
4596;DHT22;2310;49.978;8.742;2022-07-26T09:16:37;26.80;82.10
4596;DHT22;2310;49.978;8.742;2022-07-26T09:20:45;27.00;83.60
4596;DHT22;2310;49.978;8.742;2022-07-26T09:24:46;26.80;83.10
4596;DHT22;2310;49.978;8.742;2022-07-26T09:29:06;27.30;78.10
4596;DHT22;2310;49.978;8.742;2022-07-26T09:33:08;27.30;78.20
4596;DHT22;2310;49.978;8.742;2022-07-26T09:37:09;26.60;80.80
4596;DHT22;2310;49.978;8.742;2022-07-26T09:45:26;26.40;78.40
4596;DHT22;2310;49.978;8.742;2022-07-26T09:49:28;27.10;81.90
4596;DHT22;2310;49.978;8.742;2022-07-26T09:53:44;27.30;77.70
4596;DHT22;2310;49.978;8.742;2022-07-26T09:57:46;27.40;76.20
4596;DHT22;2310;49.978;8.742;2022-07-26T10:01:49;27.00;75.60
4596;DHT22;2310;49.978;8.742;2022-07-26T10:05:51;27.10;77.70
4596;DHT22;2310;49.978;8.742;2022-07-26T10:10:03;27.40;77.00
4596;DHT22;2310;49.978;8.742;2022-07-26T10:22:46;28.20;68.30
4596;DHT22;2310;49.978;8.742;2022-07-26T10:26:47;27.80;66.60
4596;DHT22;2310;49.978;8.742;2022-07-26T10:30:49;27.40;68.70
4596;DHT22;2310;49.978;8.742;2022-07-26T10:34:50;28.80;70.50
4596;DHT22;2310;49.978;8.742;2022-07-26T10:47:13;28.20;69.20
4596;DHT22;2310;49.978;8.742;2022-07-26T10:51:27;29.70;64.20
4596;DHT22;2310;49.978;8.742;2022-07-26T10:55:29;29.00;60.90
4596;DHT22;2310;49.978;8.742;2022-07-26T10:59:32;28.90;64.10
4596;DHT22;2310;49.978;8.742;2022-07-26T11:03:40;28.60;62.60
4596;DHT22;2310;49.978;8.742;2022-07-26T11:08:09;28.20;63.80
4596;DHT22;2310;49.978;8.742;2022-07-26T11:12:18;28.20;64.60
4596;DHT22;2310;49.978;8.742;2022-07-26T11:16:20;28.30;63.80
4596;DHT22;2310;49.978;8.742;2022-07-26T11:20:24;28.20;63.50
4596;DHT22;2310;49.978;8.742;2022-07-26T11:24:27;28.20;63.50
4596;DHT22;2310;49.978;8.742;2022-07-26T11:32:53;27.90;65.90
4596;DHT22;2310;49.978;8.742;2022-07-26T11:36:57;27.90;64.80
4596;DHT22;2310;49.978;8.742;2022-07-26T11:40:59;28.40;63.40
4596;DHT22;2310;49.978;8.742;2022-07-26T11:45:00;29.10;62.90
4596;DHT22;2310;49.978;8.742;2022-07-26T11:49:03;29.40;60.50
4596;DHT22;2310;49.978;8.742;2022-07-26T11:53:19;29.30;58.10
4596;DHT22;2310;49.978;8.742;2022-07-26T11:57:11;29.30;57.20
4596;DHT22;2310;49.978;8.742;2022-07-26T12:01:15;29.10;58.50
4596;DHT22;2310;49.978;8.742;2022-07-26T12:05:19;28.80;56.70
4596;DHT22;2310;49.978;8.742;2022-07-26T12:09:33;29.80;57.30
4596;DHT22;2310;49.978;8.742;2022-07-26T12:13:32;30.40;55.60
4596;DHT22;2310;49.978;8.742;2022-07-26T12:17:37;31.30;54.90
4596;DHT22;2310;49.978;8.742;2022-07-26T12:21:40;31.40;52.40
4596;DHT22;2310;49.978;8.742;2022-07-26T12:25:42;30.80;54.20
4596;DHT22;2310;49.978;8.742;2022-07-26T12:29:47;30.00;53.40
4596;DHT22;2310;49.978;8.742;2022-07-26T12:33:49;29.50;55.70
4596;DHT22;2310;49.978;8.742;2022-07-26T12:37:51;29.30;55.70
4596;DHT22;2310;49.978;8.742;2022-07-26T12:41:54;29.00;58.00
4596;DHT22;2310;49.978;8.742;2022-07-26T12:45:55;29.30;58.60
4596;DHT22;2310;49.978;8.742;2022-07-26T12:49:57;29.40;58.20
4596;DHT22;2310;49.978;8.742;2022-07-26T12:53:58;29.20;59.30
4596;DHT22;2310;49.978;8.742;2022-07-26T12:58:00;29.40;58.90
4596;DHT22;2310;49.978;8.742;2022-07-26T13:02:02;28.80;57.60
4596;DHT22;2310;49.978;8.742;2022-07-26T13:06:04;29.00;58.00
4596;DHT22;2310;49.978;8.742;2022-07-26T13:10:07;29.30;58.40
4596;DHT22;2310;49.978;8.742;2022-07-26T13:14:11;29.00;56.70
4596;DHT22;2310;49.978;8.742;2022-07-26T13:18:14;29.40;58.20
4596;DHT22;2310;49.978;8.742;2022-07-26T13:22:15;30.30;56.90
4596;DHT22;2310;49.978;8.742;2022-07-26T13:26:16;31.00;55.10
4596;DHT22;2310;49.978;8.742;2022-07-26T13:30:18;30.70;52.10
4596;DHT22;2310;49.978;8.742;2022-07-26T13:34:20;30.20;54.10
4596;DHT22;2310;49.978;8.742;2022-07-26T13:38:23;29.90;54.60
4596;DHT22;2310;49.978;8.742;2022-07-26T13:42:24;29.40;55.10
4596;DHT22;2310;49.978;8.742;2022-07-26T13:46:26;29.10;56.20
4596;DHT22;2310;49.978;8.742;2022-07-26T13:50:31;28.60;57.00
4596;DHT22;2310;49.978;8.742;2022-07-26T13:54:34;28.70;57.90
4596;DHT22;2310;49.978;8.742;2022-07-26T13:58:35;28.90;57.20
4596;DHT22;2310;49.978;8.742;2022-07-26T14:02:36;30.20;57.20
4596;DHT22;2310;49.978;8.742;2022-07-26T14:06:38;30.40;55.00
4596;DHT22;2310;49.978;8.742;2022-07-26T14:10:40;31.20;53.60
4596;DHT22;2310;49.978;8.742;2022-07-26T14:14:41;30.80;52.60
4596;DHT22;2310;49.978;8.742;2022-07-26T14:18:42;30.40;51.80
4596;DHT22;2310;49.978;8.742;2022-07-26T14:22:44;30.30;52.70
4596;DHT22;2310;49.978;8.742;2022-07-26T14:26:45;30.00;54.00
4596;DHT22;2310;49.978;8.742;2022-07-26T14:30:48;29.90;54.60
4596;DHT22;2310;49.978;8.742;2022-07-26T14:34:49;29.90;53.90
4596;DHT22;2310;49.978;8.742;2022-07-26T14:38:51;29.80;54.00
4596;DHT22;2310;49.978;8.742;2022-07-26T14:42:52;29.70;54.30
4596;DHT22;2310;49.978;8.742;2022-07-26T14:46:54;29.40;54.40
4596;DHT22;2310;49.978;8.742;2022-07-26T14:50:55;29.60;55.50
4596;DHT22;2310;49.978;8.742;2022-07-26T14:54:58;30.10;54.50
4596;DHT22;2310;49.978;8.742;2022-07-26T14:58:59;30.10;53.80
4596;DHT22;2310;49.978;8.742;2022-07-26T15:03:01;30.50;51.70
4596;DHT22;2310;49.978;8.742;2022-07-26T15:07:02;30.00;50.90
4596;DHT22;2310;49.978;8.742;2022-07-26T15:11:03;29.90;51.70
4596;DHT22;2310;49.978;8.742;2022-07-26T15:15:07;30.10;52.20
4596;DHT22;2310;49.978;8.742;2022-07-26T15:19:08;30.20;52.10
4596;DHT22;2310;49.978;8.742;2022-07-26T15:23:09;30.60;52.00
4596;DHT22;2310;49.978;8.742;2022-07-26T15:27:12;30.60;51.20
4596;DHT22;2310;49.978;8.742;2022-07-26T15:31:13;30.60;51.60
4596;DHT22;2310;49.978;8.742;2022-07-26T15:35:15;30.60;50.40
4596;DHT22;2310;49.978;8.742;2022-07-26T15:39:16;30.40;51.00
4596;DHT22;2310;49.978;8.742;2022-07-26T15:43:21;30.50;51.00
4596;DHT22;2310;49.978;8.742;2022-07-26T15:47:24;30.50;49.60
4596;DHT22;2310;49.978;8.742;2022-07-26T15:51:27;30.10;51.70
4596;DHT22;2310;49.978;8.742;2022-07-26T15:55:28;30.30;51.40
4596;DHT22;2310;49.978;8.742;2022-07-26T15:59:29;30.40;50.80
4596;DHT22;2310;49.978;8.742;2022-07-26T16:03:30;30.50;50.20
4596;DHT22;2310;49.978;8.742;2022-07-26T16:07:32;30.40;51.30
4596;DHT22;2310;49.978;8.742;2022-07-26T16:11:33;29.90;51.30
4596;DHT22;2310;49.978;8.742;2022-07-26T16:15:34;29.50;52.80
4596;DHT22;2310;49.978;8.742;2022-07-26T16:19:36;29.80;53.00
4596;DHT22;2310;49.978;8.742;2022-07-26T16:23:37;30.00;52.00
4596;DHT22;2310;49.978;8.742;2022-07-26T16:27:43;30.00;52.10
4596;DHT22;2310;49.978;8.742;2022-07-26T16:31:44;30.20;52.80
4596;DHT22;2310;49.978;8.742;2022-07-26T16:35:45;30.30;51.60
4596;DHT22;2310;49.978;8.742;2022-07-26T16:39:46;30.10;51.00
4596;DHT22;2310;49.978;8.742;2022-07-26T16:43:48;29.60;51.70
4596;DHT22;2310;49.978;8.742;2022-07-26T16:47:49;29.30;52.80
4596;DHT22;2310;49.978;8.742;2022-07-26T16:51:50;29.30;53.60
4596;DHT22;2310;49.978;8.742;2022-07-26T16:55:51;28.90;53.00
4596;DHT22;2310;49.978;8.742;2022-07-26T16:59:53;28.70;52.90
4596;DHT22;2310;49.978;8.742;2022-07-26T17:03:54;28.60;53.60
4596;DHT22;2310;49.978;8.742;2022-07-26T17:07:55;28.30;53.60
4596;DHT22;2310;49.978;8.742;2022-07-26T17:11:58;28.00;53.40
4596;DHT22;2310;49.978;8.742;2022-07-26T17:16:02;28.00;54.10
4596;DHT22;2310;49.978;8.742;2022-07-26T17:20:05;27.90;54.00
4596;DHT22;2310;49.978;8.742;2022-07-26T17:24:06;28.00;54.30
4596;DHT22;2310;49.978;8.742;2022-07-26T17:28:08;27.80;54.30
4596;DHT22;2310;49.978;8.742;2022-07-26T17:32:10;27.80;54.80
4596;DHT22;2310;49.978;8.742;2022-07-26T17:36:26;28.00;54.70
4596;DHT22;2310;49.978;8.742;2022-07-26T17:40:28;27.70;54.80
4596;DHT22;2310;49.978;8.742;2022-07-26T17:44:30;27.80;54.80
4596;DHT22;2310;49.978;8.742;2022-07-26T17:48:31;27.80;55.10
4596;DHT22;2310;49.978;8.742;2022-07-26T17:52:33;27.40;55.00
4596;DHT22;2310;49.978;8.742;2022-07-26T17:56:34;27.40;55.50
4596;DHT22;2310;49.978;8.742;2022-07-26T18:00:36;27.60;55.90
4596;DHT22;2310;49.978;8.742;2022-07-26T18:04:37;27.20;56.40
4596;DHT22;2310;49.978;8.742;2022-07-26T18:08:38;26.60;59.80
4596;DHT22;2310;49.978;8.742;2022-07-26T18:12:39;26.30;61.50
4596;DHT22;2310;49.978;8.742;2022-07-26T18:16:41;26.30;62.50
4596;DHT22;2310;49.978;8.742;2022-07-26T18:20:44;26.30;63.50
4596;DHT22;2310;49.978;8.742;2022-07-26T18:24:45;26.10;64.70
4596;DHT22;2310;49.978;8.742;2022-07-26T18:28:47;26.20;65.30
4596;DHT22;2310;49.978;8.742;2022-07-26T18:32:51;26.20;66.00
4596;DHT22;2310;49.978;8.742;2022-07-26T18:36:52;26.00;67.40
4596;DHT22;2310;49.978;8.742;2022-07-26T18:40:53;25.90;68.10
4596;DHT22;2310;49.978;8.742;2022-07-26T18:44:55;25.80;68.60
4596;DHT22;2310;49.978;8.742;2022-07-26T18:48:56;26.00;68.90
4596;DHT22;2310;49.978;8.742;2022-07-26T18:52:59;26.00;68.80
4596;DHT22;2310;49.978;8.742;2022-07-26T18:57:00;26.00;69.30
4596;DHT22;2310;49.978;8.742;2022-07-26T19:01:01;26.00;70.10
4596;DHT22;2310;49.978;8.742;2022-07-26T19:05:04;25.90;69.60
4596;DHT22;2310;49.978;8.742;2022-07-26T19:09:05;25.80;69.30
4596;DHT22;2310;49.978;8.742;2022-07-26T19:13:06;25.60;70.30
4596;DHT22;2310;49.978;8.742;2022-07-26T19:17:08;25.30;71.30
4596;DHT22;2310;49.978;8.742;2022-07-26T19:21:11;25.30;72.30
4596;DHT22;2310;49.978;8.742;2022-07-26T19:25:13;25.30;72.30
4596;DHT22;2310;49.978;8.742;2022-07-26T19:29:16;25.40;73.70
4596;DHT22;2310;49.978;8.742;2022-07-26T19:33:18;25.40;74.00
4596;DHT22;2310;49.978;8.742;2022-07-26T19:37:19;25.40;73.70
4596;DHT22;2310;49.978;8.742;2022-07-26T19:41:21;25.50;73.40
4596;DHT22;2310;49.978;8.742;2022-07-26T19:45:22;25.40;73.20
4596;DHT22;2310;49.978;8.742;2022-07-26T19:49:24;25.40;73.80
4596;DHT22;2310;49.978;8.742;2022-07-26T19:53:25;25.40;73.30
4596;DHT22;2310;49.978;8.742;2022-07-26T19:57:27;25.40;73.40
4596;DHT22;2310;49.978;8.742;2022-07-26T20:01:28;25.40;74.10
4596;DHT22;2310;49.978;8.742;2022-07-26T20:05:30;25.40;74.60
4596;DHT22;2310;49.978;8.742;2022-07-26T20:09:32;25.60;73.70
4596;DHT22;2310;49.978;8.742;2022-07-26T20:13:34;25.70;73.50
4596;DHT22;2310;49.978;8.742;2022-07-26T20:17:36;25.80;72.60
4596;DHT22;2310;49.978;8.742;2022-07-26T20:21:39;25.90;72.10
4596;DHT22;2310;49.978;8.742;2022-07-26T20:25:40;25.80;71.80
4596;DHT22;2310;49.978;8.742;2022-07-26T20:29:41;25.70;71.30
4596;DHT22;2310;49.978;8.742;2022-07-26T20:33:42;25.50;71.70
4596;DHT22;2310;49.978;8.742;2022-07-26T20:37:44;25.30;72.00
4596;DHT22;2310;49.978;8.742;2022-07-26T20:41:45;25.30;74.10
4596;DHT22;2310;49.978;8.742;2022-07-26T20:45:46;25.30;74.10
4596;DHT22;2310;49.978;8.742;2022-07-26T20:49:47;25.20;74.00
4596;DHT22;2310;49.978;8.742;2022-07-26T20:53:49;25.00;74.80
4596;DHT22;2310;49.978;8.742;2022-07-26T20:57:50;25.10;75.20
4596;DHT22;2310;49.978;8.742;2022-07-26T21:01:51;25.10;75.80
4596;DHT22;2310;49.978;8.742;2022-07-26T21:05:53;24.90;77.80
4596;DHT22;2310;49.978;8.742;2022-07-26T21:09:54;24.60;79.20
4596;DHT22;2310;49.978;8.742;2022-07-26T21:13:55;24.50;80.90
4596;DHT22;2310;49.978;8.742;2022-07-26T21:17:57;24.40;83.00
4596;DHT22;2310;49.978;8.742;2022-07-26T21:21:58;24.30;86.10
4596;DHT22;2310;49.978;8.742;2022-07-26T21:26:00;24.20;88.30
4596;DHT22;2310;49.978;8.742;2022-07-26T21:30:02;24.20;89.60
4596;DHT22;2310;49.978;8.742;2022-07-26T21:34:04;24.20;90.30
4596;DHT22;2310;49.978;8.742;2022-07-26T21:38:05;24.20;91.00
4596;DHT22;2310;49.978;8.742;2022-07-26T21:42:07;24.20;90.60
4596;DHT22;2310;49.978;8.742;2022-07-26T21:46:08;23.80;92.10
4596;DHT22;2310;49.978;8.742;2022-07-26T21:50:11;23.50;94.80
4596;DHT22;2310;49.978;8.742;2022-07-26T21:54:13;23.30;97.10
4596;DHT22;2310;49.978;8.742;2022-07-26T21:58:15;23.20;98.90
4596;DHT22;2310;49.978;8.742;2022-07-26T22:02:17;23.10;99.90
4596;DHT22;2310;49.978;8.742;2022-07-26T22:06:21;23.10;99.90
4596;DHT22;2310;49.978;8.742;2022-07-26T22:10:22;22.80;99.90
4596;DHT22;2310;49.978;8.742;2022-07-26T22:14:23;22.80;99.90
4596;DHT22;2310;49.978;8.742;2022-07-26T22:18:25;22.60;99.90
4596;DHT22;2310;49.978;8.742;2022-07-26T22:22:27;22.50;99.90
4596;DHT22;2310;49.978;8.742;2022-07-26T22:26:28;22.50;99.90
4596;DHT22;2310;49.978;8.742;2022-07-26T22:30:31;22.90;99.90
4596;DHT22;2310;49.978;8.742;2022-07-26T22:34:32;23.10;99.90
4596;DHT22;2310;49.978;8.742;2022-07-26T22:38:33;23.20;99.90
4596;DHT22;2310;49.978;8.742;2022-07-26T22:42:35;23.10;99.90
4596;DHT22;2310;49.978;8.742;2022-07-26T22:46:36;22.90;99.90
4596;DHT22;2310;49.978;8.742;2022-07-26T22:50:37;22.90;99.90
4596;DHT22;2310;49.978;8.742;2022-07-26T22:54:39;22.90;99.90
4596;DHT22;2310;49.978;8.742;2022-07-26T22:58:40;23.10;99.90
4596;DHT22;2310;49.978;8.742;2022-07-26T23:02:41;23.00;99.90
4596;DHT22;2310;49.978;8.742;2022-07-26T23:06:43;23.00;99.90
4596;DHT22;2310;49.978;8.742;2022-07-26T23:10:45;23.10;99.90
4596;DHT22;2310;49.978;8.742;2022-07-26T23:14:46;23.10;99.90
4596;DHT22;2310;49.978;8.742;2022-07-26T23:18:47;23.10;99.90
4596;DHT22;2310;49.978;8.742;2022-07-26T23:22:49;22.90;99.90
4596;DHT22;2310;49.978;8.742;2022-07-26T23:26:50;23.00;99.90
4596;DHT22;2310;49.978;8.742;2022-07-26T23:30:51;23.00;99.90
4596;DHT22;2310;49.978;8.742;2022-07-26T23:34:52;23.00;99.90
4596;DHT22;2310;49.978;8.742;2022-07-26T23:38:55;22.80;99.90
4596;DHT22;2310;49.978;8.742;2022-07-26T23:42:56;22.80;99.90
4596;DHT22;2310;49.978;8.742;2022-07-26T23:46:58;22.80;99.90
4596;DHT22;2310;49.978;8.742;2022-07-26T23:50:59;23.00;99.90
4596;DHT22;2310;49.978;8.742;2022-07-26T23:55:01;23.00;99.90
4596;DHT22;2310;49.978;8.742;2022-07-26T23:59:03;23.00;99.90
